»·PEaware :: N910GE 3L2-49X

N910GE :: 3L2-49X

FLIGHT INFORMATION

Flight Status: Arrived
Operator: Privately registered:
United States
More flights under this callsign
Pilot: Jim H. (33905)
Aircraft: SOCATA TBM-900
(TBM9)
More flights by this aircraft type
Origin: 3L2 Sky Ranch
United States
Destination: 49X Chemehuevi Valley
United States
More flights between these airports :: More routes between these airports
Route: GRMMA
File this flight plan on PilotEdge
Remarks:
Altitude:
(Current/Filed)
17,000ft
Speed:
(Current/Filed)
250kts
Departed: 21-Sep-22 06:33 PM
Arrived: 21-Sep-22 07:10 PM
Distance/Time
Traveled:
96nm/0:37
Distance/Time
To Go:
Arrived

Flight Plot

Page will automatically refresh every two minutes.

Flight plan parsing failed; only flown route is shown


Map Options




Map Legend


Flown Route
Filed Route
Departure Airport
Arrival Airport
Navaid (VOR, NDB)
Fix

Horizontal Profiles

Position Reports

Time Latitude Longitude Heading Altitude Ground
Speed
21-Sep-22 18:21 35.789746 -115.622345 313 2579ft 0kts
21-Sep-22 18:22 35.789746 -115.622345 313 2579ft 0kts
21-Sep-22 18:23 35.789746 -115.622345 313 2579ft 0kts
21-Sep-22 18:24 35.789746 -115.622345 313 2579ft 0kts
21-Sep-22 18:25 35.789746 -115.622345 313 2579ft 0kts
21-Sep-22 18:26 35.789746 -115.622345 313 2579ft 0kts
21-Sep-22 18:27 35.789746 -115.622345 313 2579ft 0kts
21-Sep-22 18:28 35.789746 -115.622345 313 2579ft 0kts
21-Sep-22 18:29 35.790006 -115.621835 93 2579ft 19kts
21-Sep-22 18:30 35.788836 -115.621101 325 2579ft 4kts
21-Sep-22 18:31 35.790575 -115.623412 316 2579ft 0kts
21-Sep-22 18:32 35.798767 -115.633787 315 2770ft 116kts
21-Sep-22 18:33 35.822997 -115.665400 309 4942ft 142kts
21-Sep-22 18:34 35.800675 -115.683568 135 7688ft 165kts
21-Sep-22 18:35 35.765647 -115.648139 149 10307ft 162kts
21-Sep-22 18:36 35.732167 -115.614980 151 13032ft 156kts
21-Sep-22 18:37 35.698764 -115.581580 153 15747ft 159kts
21-Sep-22 18:38 35.662897 -115.545943 152 17527ft 196kts
21-Sep-22 18:39 35.613644 -115.496585 149 17498ft 248kts
21-Sep-22 18:40 35.558664 -115.441615 149 17487ft 260kts
21-Sep-22 18:41 35.502117 -115.385287 149 17485ft 262kts
21-Sep-22 18:42 35.445335 -115.328834 149 17479ft 263kts
21-Sep-22 18:43 35.388501 -115.271005 146 17480ft 270kts
21-Sep-22 18:44 35.333034 -115.208517 145 17467ft 272kts
21-Sep-22 18:45 35.288127 -115.130385 131 17418ft 283kts
21-Sep-22 18:46 35.245199 -115.050034 131 17384ft 281kts
21-Sep-22 18:47 35.202604 -114.970487 130 17369ft 278kts
21-Sep-22 18:48 35.160356 -114.891749 130 17369ft 277kts
21-Sep-22 18:49 35.117973 -114.812949 130 17369ft 277kts
21-Sep-22 18:50 35.075681 -114.734498 130 17369ft 277kts
21-Sep-22 18:51 35.033361 -114.656174 130 17369ft 277kts
21-Sep-22 18:52 34.990833 -114.577657 130 17379ft 278kts
21-Sep-22 18:53 34.947887 -114.498519 129 17390ft 281kts
21-Sep-22 18:54 34.904470 -114.418705 128 17308ft 287kts
21-Sep-22 18:55 34.858906 -114.335108 127 15936ft 304kts
21-Sep-22 18:56 34.811822 -114.248934 127 14594ft 304kts
21-Sep-22 18:57 34.764946 -114.163672 129 13071ft 302kts
21-Sep-22 18:58 34.692954 -114.134298 170 11480ft 269kts
21-Sep-22 18:59 34.622028 -114.116577 170 10204ft 255kts
21-Sep-22 19:00 34.553474 -114.099461 169 8982ft 250kts
21-Sep-22 19:01 34.485877 -114.082624 168 7769ft 247kts
21-Sep-22 19:02 34.419709 -114.076543 213 6435ft 253kts
21-Sep-22 19:03 34.382151 -114.151077 235 4900ft 263kts
21-Sep-22 19:04 34.380898 -114.224163 324 4378ft 236kts
21-Sep-22 19:05 34.422372 -114.281144 304 3936ft 226kts
21-Sep-22 19:06 34.454322 -114.345569 281 3494ft 222kts
21-Sep-22 19:07 34.469739 -114.419360 283 2826ft 226kts
21-Sep-22 19:08 34.517717 -114.432500 11 817ft 135kts
21-Sep-22 19:09 34.533154 -114.431975 359 624ft 0kts
21-Sep-22 19:10 34.533154 -114.431975 359 624ft 0kts
21-Sep-22 19:11 34.533154 -114.431975 359 624ft 0kts
21-Sep-22 19:12 34.533154 -114.431975 359 624ft 0kts

Navigation Log

Ident Type
Flight plan parsing failed, navigation log unavailable